sensor_id;sensor_type;location;lat;lon;timestamp;P1;durP1;ratioP1;P2;durP2;ratioP2
286;SDS011;127;48.770;9.212;2023-08-12T00:00:51;21.57;;;5.50;;
286;SDS011;127;48.770;9.212;2023-08-12T00:03:24;7.60;;;5.57;;
286;SDS011;127;48.770;9.212;2023-08-12T00:05:59;7.87;;;5.20;;
286;SDS011;127;48.770;9.212;2023-08-12T00:08:39;9.30;;;5.70;;
286;SDS011;127;48.770;9.212;2023-08-12T00:11:14;7.63;;;5.37;;
286;SDS011;127;48.770;9.212;2023-08-12T00:13:47;8.47;;;5.60;;
286;SDS011;127;48.770;9.212;2023-08-12T00:16:17;10.10;;;5.40;;
286;SDS011;127;48.770;9.212;2023-08-12T00:19:00;8.90;;;5.33;;
286;SDS011;127;48.770;9.212;2023-08-12T00:21:40;7.77;;;5.07;;
286;SDS011;127;48.770;9.212;2023-08-12T00:24:10;8.93;;;5.17;;
286;SDS011;127;48.770;9.212;2023-08-12T00:26:42;8.10;;;5.10;;
286;SDS011;127;48.770;9.212;2023-08-12T00:29:14;6.90;;;5.10;;
286;SDS011;127;48.770;9.212;2023-08-12T00:31:48;8.57;;;6.00;;
286;SDS011;127;48.770;9.212;2023-08-12T00:34:20;9.13;;;5.17;;
286;SDS011;127;48.770;9.212;2023-08-12T00:36:55;8.80;;;5.13;;
286;SDS011;127;48.770;9.212;2023-08-12T00:39:25;10.70;;;5.33;;
286;SDS011;127;48.770;9.212;2023-08-12T00:41:55;6.83;;;5.63;;
286;SDS011;127;48.770;9.212;2023-08-12T00:44:38;10.53;;;5.70;;
286;SDS011;127;48.770;9.212;2023-08-12T00:47:08;7.53;;;5.43;;
286;SDS011;127;48.770;9.212;2023-08-12T00:49:46;17.83;;;5.53;;
286;SDS011;127;48.770;9.212;2023-08-12T00:52:29;11.33;;;5.43;;
286;SDS011;127;48.770;9.212;2023-08-12T00:55:04;11.80;;;5.53;;
286;SDS011;127;48.770;9.212;2023-08-12T00:57:38;9.53;;;6.53;;
286;SDS011;127;48.770;9.212;2023-08-12T01:00:10;8.60;;;6.00;;
286;SDS011;127;48.770;9.212;2023-08-12T01:02:42;8.27;;;5.60;;
286;SDS011;127;48.770;9.212;2023-08-12T01:05:15;16.20;;;5.93;;
286;SDS011;127;48.770;9.212;2023-08-12T01:07:56;13.70;;;5.80;;
286;SDS011;127;48.770;9.212;2023-08-12T01:10:30;9.07;;;5.20;;
286;SDS011;127;48.770;9.212;2023-08-12T01:13:11;14.33;;;5.50;;
286;SDS011;127;48.770;9.212;2023-08-12T01:15:48;14.13;;;5.90;;
286;SDS011;127;48.770;9.212;2023-08-12T01:18:28;10.30;;;6.47;;
286;SDS011;127;48.770;9.212;2023-08-12T01:21:06;10.10;;;5.93;;
286;SDS011;127;48.770;9.212;2023-08-12T01:23:45;13.53;;;6.67;;
286;SDS011;127;48.770;9.212;2023-08-12T01:26:16;10.10;;;6.10;;
286;SDS011;127;48.770;9.212;2023-08-12T01:28:55;10.50;;;6.13;;
286;SDS011;127;48.770;9.212;2023-08-12T01:31:31;11.33;;;6.50;;
286;SDS011;127;48.770;9.212;2023-08-12T01:34:12;14.03;;;6.17;;
286;SDS011;127;48.770;9.212;2023-08-12T01:36:54;14.53;;;6.60;;
286;SDS011;127;48.770;9.212;2023-08-12T01:39:29;9.57;;;6.30;;
286;SDS011;127;48.770;9.212;2023-08-12T01:42:07;13.53;;;6.10;;
286;SDS011;127;48.770;9.212;2023-08-12T01:44:48;8.73;;;5.70;;
286;SDS011;127;48.770;9.212;2023-08-12T01:47:31;10.20;;;6.00;;
286;SDS011;127;48.770;9.212;2023-08-12T01:50:18;8.27;;;5.50;;
286;SDS011;127;48.770;9.212;2023-08-12T01:52:55;10.47;;;6.07;;
286;SDS011;127;48.770;9.212;2023-08-12T01:55:44;8.67;;;5.90;;
286;SDS011;127;48.770;9.212;2023-08-12T01:58:16;8.83;;;5.40;;
286;SDS011;127;48.770;9.212;2023-08-12T02:00:55;8.53;;;5.53;;
286;SDS011;127;48.770;9.212;2023-08-12T02:03:26;7.90;;;5.53;;
286;SDS011;127;48.770;9.212;2023-08-12T02:06:08;8.60;;;5.53;;
286;SDS011;127;48.770;9.212;2023-08-12T02:08:44;9.50;;;5.40;;
286;SDS011;127;48.770;9.212;2023-08-12T02:11:24;11.10;;;6.20;;
286;SDS011;127;48.770;9.212;2023-08-12T02:14:02;9.53;;;5.93;;
286;SDS011;127;48.770;9.212;2023-08-12T02:16:55;10.50;;;5.90;;
286;SDS011;127;48.770;9.212;2023-08-12T02:19:25;18.57;;;5.80;;
286;SDS011;127;48.770;9.212;2023-08-12T02:21:59;9.93;;;5.30;;
286;SDS011;127;48.770;9.212;2023-08-12T02:24:30;6.80;;;4.80;;
286;SDS011;127;48.770;9.212;2023-08-12T02:27:04;9.13;;;5.70;;
286;SDS011;127;48.770;9.212;2023-08-12T02:29:39;11.10;;;5.90;;
286;SDS011;127;48.770;9.212;2023-08-12T02:32:12;8.53;;;5.30;;
286;SDS011;127;48.770;9.212;2023-08-12T02:34:49;10.93;;;6.03;;
286;SDS011;127;48.770;9.212;2023-08-12T02:37:31;13.50;;;5.63;;
286;SDS011;127;48.770;9.212;2023-08-12T02:40:01;13.50;;;5.57;;
286;SDS011;127;48.770;9.212;2023-08-12T02:42:48;7.90;;;5.00;;
286;SDS011;127;48.770;9.212;2023-08-12T02:45:36;13.70;;;6.03;;
286;SDS011;127;48.770;9.212;2023-08-12T02:48:07;10.13;;;5.53;;
286;SDS011;127;48.770;9.212;2023-08-12T02:50:49;7.17;;;5.20;;
286;SDS011;127;48.770;9.212;2023-08-12T02:53:20;6.90;;;5.03;;
286;SDS011;127;48.770;9.212;2023-08-12T02:55:53;9.90;;;5.10;;
286;SDS011;127;48.770;9.212;2023-08-12T02:58:32;10.90;;;6.30;;
286;SDS011;127;48.770;9.212;2023-08-12T03:01:04;11.23;;;5.90;;
286;SDS011;127;48.770;9.212;2023-08-12T03:03:39;19.20;;;5.30;;
286;SDS011;127;48.770;9.212;2023-08-12T03:06:12;12.53;;;6.00;;
286;SDS011;127;48.770;9.212;2023-08-12T03:08:47;11.93;;;5.53;;
286;SDS011;127;48.770;9.212;2023-08-12T03:11:18;7.73;;;5.27;;
286;SDS011;127;48.770;9.212;2023-08-12T03:13:52;8.47;;;5.53;;
286;SDS011;127;48.770;9.212;2023-08-12T03:16:26;10.80;;;5.60;;
286;SDS011;127;48.770;9.212;2023-08-12T03:19:04;10.07;;;5.90;;
286;SDS011;127;48.770;9.212;2023-08-12T03:21:42;7.90;;;5.63;;
286;SDS011;127;48.770;9.212;2023-08-12T03:24:13;13.07;;;6.13;;
286;SDS011;127;48.770;9.212;2023-08-12T03:26:47;11.80;;;5.50;;
286;SDS011;127;48.770;9.212;2023-08-12T03:29:22;9.00;;;4.80;;
286;SDS011;127;48.770;9.212;2023-08-12T03:31:57;6.90;;;5.07;;
286;SDS011;127;48.770;9.212;2023-08-12T03:34:30;9.00;;;5.20;;
286;SDS011;127;48.770;9.212;2023-08-12T03:37:01;7.80;;;5.37;;
286;SDS011;127;48.770;9.212;2023-08-12T03:39:31;8.03;;;4.93;;
286;SDS011;127;48.770;9.212;2023-08-12T03:42:02;9.27;;;5.30;;
286;SDS011;127;48.770;9.212;2023-08-12T03:44:36;15.77;;;5.70;;
286;SDS011;127;48.770;9.212;2023-08-12T03:47:07;8.20;;;5.47;;
286;SDS011;127;48.770;9.212;2023-08-12T03:49:40;8.67;;;5.10;;
286;SDS011;127;48.770;9.212;2023-08-12T03:52:11;15.13;;;5.87;;
286;SDS011;127;48.770;9.212;2023-08-12T03:54:41;12.70;;;6.40;;
286;SDS011;127;48.770;9.212;2023-08-12T03:57:12;16.00;;;6.70;;
286;SDS011;127;48.770;9.212;2023-08-12T03:59:54;20.50;;;6.30;;
286;SDS011;127;48.770;9.212;2023-08-12T04:02:25;12.57;;;6.57;;
286;SDS011;127;48.770;9.212;2023-08-12T04:04:56;9.70;;;5.90;;
286;SDS011;127;48.770;9.212;2023-08-12T04:07:26;10.13;;;6.30;;
286;SDS011;127;48.770;9.212;2023-08-12T04:09:57;11.17;;;6.17;;
286;SDS011;127;48.770;9.212;2023-08-12T04:12:31;13.07;;;6.27;;
286;SDS011;127;48.770;9.212;2023-08-12T04:15:04;9.30;;;5.90;;
286;SDS011;127;48.770;9.212;2023-08-12T04:17:36;9.57;;;5.90;;
286;SDS011;127;48.770;9.212;2023-08-12T04:20:07;9.73;;;5.93;;
286;SDS011;127;48.770;9.212;2023-08-12T04:22:41;11.20;;;6.33;;
286;SDS011;127;48.770;9.212;2023-08-12T04:25:12;8.83;;;6.07;;
286;SDS011;127;48.770;9.212;2023-08-12T04:27:42;5.73;;;5.20;;
286;SDS011;127;48.770;9.212;2023-08-12T04:30:20;8.63;;;5.73;;
286;SDS011;127;48.770;9.212;2023-08-12T04:32:52;7.93;;;5.67;;
286;SDS011;127;48.770;9.212;2023-08-12T04:35:31;10.77;;;7.10;;
286;SDS011;127;48.770;9.212;2023-08-12T04:38:04;11.53;;;6.40;;
286;SDS011;127;48.770;9.212;2023-08-12T04:40:37;12.90;;;6.20;;
286;SDS011;127;48.770;9.212;2023-08-12T04:43:14;12.40;;;6.17;;
286;SDS011;127;48.770;9.212;2023-08-12T04:45:47;15.50;;;7.20;;
286;SDS011;127;48.770;9.212;2023-08-12T04:48:18;10.47;;;6.63;;
286;SDS011;127;48.770;9.212;2023-08-12T04:51:14;9.47;;;5.93;;
286;SDS011;127;48.770;9.212;2023-08-12T04:53:45;9.40;;;6.53;;
286;SDS011;127;48.770;9.212;2023-08-12T04:56:15;8.73;;;5.80;;
286;SDS011;127;48.770;9.212;2023-08-12T04:58:45;12.90;;;6.27;;
286;SDS011;127;48.770;9.212;2023-08-12T05:01:24;12.73;;;6.10;;
286;SDS011;127;48.770;9.212;2023-08-12T05:03:57;10.37;;;6.70;;
286;SDS011;127;48.770;9.212;2023-08-12T05:06:27;23.17;;;6.20;;
286;SDS011;127;48.770;9.212;2023-08-12T05:08:57;10.13;;;6.57;;
286;SDS011;127;48.770;9.212;2023-08-12T05:11:31;9.37;;;6.07;;
286;SDS011;127;48.770;9.212;2023-08-12T05:14:02;10.63;;;5.90;;
286;SDS011;127;48.770;9.212;2023-08-12T05:16:37;9.50;;;6.23;;
286;SDS011;127;48.770;9.212;2023-08-12T05:19:08;9.93;;;5.97;;
286;SDS011;127;48.770;9.212;2023-08-12T05:21:43;11.10;;;5.90;;
286;SDS011;127;48.770;9.212;2023-08-12T05:24:15;10.53;;;5.43;;
286;SDS011;127;48.770;9.212;2023-08-12T05:26:54;9.00;;;5.83;;
286;SDS011;127;48.770;9.212;2023-08-12T05:29:30;10.00;;;5.67;;
286;SDS011;127;48.770;9.212;2023-08-12T05:32:12;9.20;;;5.57;;
286;SDS011;127;48.770;9.212;2023-08-12T05:34:43;13.13;;;5.90;;
286;SDS011;127;48.770;9.212;2023-08-12T05:37:20;8.20;;;6.27;;
286;SDS011;127;48.770;9.212;2023-08-12T05:39:53;20.07;;;6.93;;
286;SDS011;127;48.770;9.212;2023-08-12T05:42:24;11.70;;;5.70;;
286;SDS011;127;48.770;9.212;2023-08-12T05:44:55;9.20;;;6.10;;
286;SDS011;127;48.770;9.212;2023-08-12T05:47:28;12.00;;;6.70;;
286;SDS011;127;48.770;9.212;2023-08-12T05:50:00;9.33;;;6.00;;
286;SDS011;127;48.770;9.212;2023-08-12T05:52:32;14.43;;;6.80;;
286;SDS011;127;48.770;9.212;2023-08-12T05:55:13;10.77;;;6.57;;
286;SDS011;127;48.770;9.212;2023-08-12T05:57:46;12.60;;;6.63;;
286;SDS011;127;48.770;9.212;2023-08-12T06:00:21;10.07;;;6.40;;
286;SDS011;127;48.770;9.212;2023-08-12T06:02:57;8.17;;;5.57;;
286;SDS011;127;48.770;9.212;2023-08-12T06:05:28;9.03;;;6.60;;
286;SDS011;127;48.770;9.212;2023-08-12T06:07:59;11.13;;;6.70;;
286;SDS011;127;48.770;9.212;2023-08-12T06:10:47;10.57;;;6.00;;
286;SDS011;127;48.770;9.212;2023-08-12T06:13:20;12.00;;;6.50;;
286;SDS011;127;48.770;9.212;2023-08-12T06:15:55;11.33;;;5.93;;
286;SDS011;127;48.770;9.212;2023-08-12T06:18:30;10.40;;;6.20;;
286;SDS011;127;48.770;9.212;2023-08-12T06:21:01;9.53;;;5.77;;
286;SDS011;127;48.770;9.212;2023-08-12T06:23:42;10.93;;;6.60;;
286;SDS011;127;48.770;9.212;2023-08-12T06:26:15;13.40;;;5.87;;
286;SDS011;127;48.770;9.212;2023-08-12T06:28:46;14.73;;;6.93;;
286;SDS011;127;48.770;9.212;2023-08-12T06:31:17;10.20;;;5.30;;
286;SDS011;127;48.770;9.212;2023-08-12T06:33:54;9.33;;;5.97;;
286;SDS011;127;48.770;9.212;2023-08-12T06:36:33;12.37;;;6.13;;
286;SDS011;127;48.770;9.212;2023-08-12T06:40:26;7.70;;;5.17;;
286;SDS011;127;48.770;9.212;2023-08-12T06:42:29;7.87;;;6.43;;
286;SDS011;127;48.770;9.212;2023-08-12T06:45:00;10.10;;;6.30;;
286;SDS011;127;48.770;9.212;2023-08-12T06:47:31;15.77;;;6.03;;
286;SDS011;127;48.770;9.212;2023-08-12T06:50:06;11.53;;;6.10;;
286;SDS011;127;48.770;9.212;2023-08-12T06:52:37;8.17;;;6.10;;
286;SDS011;127;48.770;9.212;2023-08-12T06:55:08;9.77;;;5.60;;
286;SDS011;127;48.770;9.212;2023-08-12T06:57:39;7.80;;;5.70;;
286;SDS011;127;48.770;9.212;2023-08-12T07:00:09;9.50;;;5.97;;
286;SDS011;127;48.770;9.212;2023-08-12T07:02:40;8.63;;;5.60;;
286;SDS011;127;48.770;9.212;2023-08-12T07:05:13;9.50;;;5.97;;
286;SDS011;127;48.770;9.212;2023-08-12T07:07:42;6.87;;;5.80;;
286;SDS011;127;48.770;9.212;2023-08-12T07:10:11;9.70;;;5.43;;
286;SDS011;127;48.770;9.212;2023-08-12T07:12:39;13.60;;;6.10;;
286;SDS011;127;48.770;9.212;2023-08-12T07:15:08;7.90;;;5.23;;
286;SDS011;127;48.770;9.212;2023-08-12T07:17:38;9.40;;;6.47;;
286;SDS011;127;48.770;9.212;2023-08-12T07:20:07;9.17;;;6.50;;
286;SDS011;127;48.770;9.212;2023-08-12T07:22:39;8.77;;;6.03;;
286;SDS011;127;48.770;9.212;2023-08-12T07:25:12;9.60;;;6.00;;
286;SDS011;127;48.770;9.212;2023-08-12T07:27:55;6.70;;;5.00;;
286;SDS011;127;48.770;9.212;2023-08-12T07:30:24;9.30;;;6.13;;
286;SDS011;127;48.770;9.212;2023-08-12T07:32:53;13.10;;;7.37;;
286;SDS011;127;48.770;9.212;2023-08-12T07:35:21;9.73;;;5.80;;
286;SDS011;127;48.770;9.212;2023-08-12T07:37:52;13.50;;;7.10;;
286;SDS011;127;48.770;9.212;2023-08-12T07:40:21;10.60;;;6.50;;
286;SDS011;127;48.770;9.212;2023-08-12T07:42:50;10.40;;;6.03;;
286;SDS011;127;48.770;9.212;2023-08-12T07:45:19;11.23;;;6.17;;
286;SDS011;127;48.770;9.212;2023-08-12T07:47:48;12.40;;;7.20;;
286;SDS011;127;48.770;9.212;2023-08-12T07:50:21;12.20;;;6.90;;
286;SDS011;127;48.770;9.212;2023-08-12T07:52:56;9.07;;;6.13;;
286;SDS011;127;48.770;9.212;2023-08-12T07:55:27;12.93;;;7.10;;
286;SDS011;127;48.770;9.212;2023-08-12T07:57:56;15.10;;;7.17;;
286;SDS011;127;48.770;9.212;2023-08-12T08:00:30;15.23;;;7.10;;
286;SDS011;127;48.770;9.212;2023-08-12T08:03:00;11.23;;;6.57;;
286;SDS011;127;48.770;9.212;2023-08-12T08:05:30;10.60;;;6.93;;
286;SDS011;127;48.770;9.212;2023-08-12T08:08:02;10.93;;;7.50;;
286;SDS011;127;48.770;9.212;2023-08-12T08:10:31;15.13;;;7.93;;
286;SDS011;127;48.770;9.212;2023-08-12T08:13:00;10.00;;;7.17;;
286;SDS011;127;48.770;9.212;2023-08-12T08:15:33;9.17;;;6.10;;
286;SDS011;127;48.770;9.212;2023-08-12T08:18:02;12.70;;;7.77;;
286;SDS011;127;48.770;9.212;2023-08-12T08:20:31;12.70;;;7.30;;
286;SDS011;127;48.770;9.212;2023-08-12T08:23:04;11.97;;;6.67;;
286;SDS011;127;48.770;9.212;2023-08-12T08:25:36;15.97;;;6.77;;
286;SDS011;127;48.770;9.212;2023-08-12T08:28:05;11.13;;;6.77;;
286;SDS011;127;48.770;9.212;2023-08-12T08:30:36;8.40;;;5.93;;
286;SDS011;127;48.770;9.212;2023-08-12T08:33:07;9.03;;;6.30;;
286;SDS011;127;48.770;9.212;2023-08-12T08:35:36;16.43;;;6.40;;
286;SDS011;127;48.770;9.212;2023-08-12T08:38:08;7.43;;;5.53;;
286;SDS011;127;48.770;9.212;2023-08-12T08:40:36;13.10;;;5.80;;
286;SDS011;127;48.770;9.212;2023-08-12T08:43:06;10.80;;;6.33;;
286;SDS011;127;48.770;9.212;2023-08-12T08:45:38;10.90;;;6.60;;
286;SDS011;127;48.770;9.212;2023-08-12T08:48:09;11.60;;;6.47;;
286;SDS011;127;48.770;9.212;2023-08-12T08:50:50;9.27;;;6.87;;
286;SDS011;127;48.770;9.212;2023-08-12T08:53:22;13.30;;;6.60;;
286;SDS011;127;48.770;9.212;2023-08-12T08:55:52;9.00;;;5.93;;
286;SDS011;127;48.770;9.212;2023-08-12T08:58:24;9.67;;;6.40;;
286;SDS011;127;48.770;9.212;2023-08-12T09:00:54;14.97;;;6.40;;
286;SDS011;127;48.770;9.212;2023-08-12T09:03:22;11.93;;;5.70;;
286;SDS011;127;48.770;9.212;2023-08-12T09:05:55;11.70;;;5.57;;
286;SDS011;127;48.770;9.212;2023-08-12T09:08:26;8.20;;;5.33;;
286;SDS011;127;48.770;9.212;2023-08-12T09:11:01;12.27;;;6.50;;
286;SDS011;127;48.770;9.212;2023-08-12T09:13:32;8.60;;;5.37;;
286;SDS011;127;48.770;9.212;2023-08-12T09:16:01;9.43;;;5.93;;
286;SDS011;127;48.770;9.212;2023-08-12T09:18:49;8.93;;;5.47;;
286;SDS011;127;48.770;9.212;2023-08-12T09:21:26;5.93;;;4.53;;
286;SDS011;127;48.770;9.212;2023-08-12T09:23:58;7.70;;;5.00;;
286;SDS011;127;48.770;9.212;2023-08-12T09:26:33;9.27;;;5.10;;
286;SDS011;127;48.770;9.212;2023-08-12T09:29:02;7.73;;;5.50;;
286;SDS011;127;48.770;9.212;2023-08-12T09:31:46;17.27;;;5.27;;
286;SDS011;127;48.770;9.212;2023-08-12T09:34:15;9.33;;;4.87;;
286;SDS011;127;48.770;9.212;2023-08-12T09:39:40;5.20;;;4.27;;
286;SDS011;127;48.770;9.212;2023-08-12T09:42:10;6.17;;;3.90;;
286;SDS011;127;48.770;9.212;2023-08-12T09:44:44;4.90;;;3.70;;
286;SDS011;127;48.770;9.212;2023-08-12T09:47:15;4.33;;;3.40;;
286;SDS011;127;48.770;9.212;2023-08-12T09:52:32;6.77;;;3.60;;
286;SDS011;127;48.770;9.212;2023-08-12T09:55:03;3.80;;;3.03;;
286;SDS011;127;48.770;9.212;2023-08-12T10:02:14;5.00;;;3.80;;
286;SDS011;127;48.770;9.212;2023-08-12T10:04:29;5.70;;;3.43;;
286;SDS011;127;48.770;9.212;2023-08-12T10:07:22;3.90;;;3.20;;
286;SDS011;127;48.770;9.212;2023-08-12T10:10:00;8.80;;;3.60;;
286;SDS011;127;48.770;9.212;2023-08-12T10:12:33;4.67;;;3.47;;
286;SDS011;127;48.770;9.212;2023-08-12T10:15:04;5.80;;;4.17;;
286;SDS011;127;48.770;9.212;2023-08-12T10:17:34;7.77;;;3.70;;
286;SDS011;127;48.770;9.212;2023-08-12T10:20:04;10.03;;;4.70;;
286;SDS011;127;48.770;9.212;2023-08-12T10:22:34;8.93;;;5.13;;
286;SDS011;127;48.770;9.212;2023-08-12T10:25:13;6.07;;;4.83;;
286;SDS011;127;48.770;9.212;2023-08-12T10:27:42;7.63;;;5.10;;
286;SDS011;127;48.770;9.212;2023-08-12T10:30:13;4.73;;;4.13;;
286;SDS011;127;48.770;9.212;2023-08-12T10:32:42;8.60;;;3.70;;
286;SDS011;127;48.770;9.212;2023-08-12T10:35:11;17.37;;;4.50;;
286;SDS011;127;48.770;9.212;2023-08-12T10:37:45;6.80;;;4.30;;
286;SDS011;127;48.770;9.212;2023-08-12T10:40:22;7.50;;;3.97;;
286;SDS011;127;48.770;9.212;2023-08-12T10:42:51;6.33;;;3.37;;
286;SDS011;127;48.770;9.212;2023-08-12T10:45:40;5.83;;;3.63;;
286;SDS011;127;48.770;9.212;2023-08-12T10:51:00;7.33;;;4.17;;
286;SDS011;127;48.770;9.212;2023-08-12T10:53:32;6.70;;;3.80;;
286;SDS011;127;48.770;9.212;2023-08-12T10:56:04;5.53;;;4.07;;
286;SDS011;127;48.770;9.212;2023-08-12T10:58:33;10.73;;;4.70;;
286;SDS011;127;48.770;9.212;2023-08-12T11:01:08;5.40;;;3.43;;
286;SDS011;127;48.770;9.212;2023-08-12T11:03:42;9.37;;;4.20;;
286;SDS011;127;48.770;9.212;2023-08-12T11:06:11;5.33;;;3.30;;
286;SDS011;127;48.770;9.212;2023-08-12T11:08:45;6.00;;;4.10;;
286;SDS011;127;48.770;9.212;2023-08-12T11:11:23;7.33;;;4.13;;
286;SDS011;127;48.770;9.212;2023-08-12T11:13:55;4.90;;;3.87;;
286;SDS011;127;48.770;9.212;2023-08-12T11:16:34;7.60;;;3.77;;
286;SDS011;127;48.770;9.212;2023-08-12T11:19:05;5.83;;;3.87;;
286;SDS011;127;48.770;9.212;2023-08-12T11:21:35;6.33;;;4.40;;
286;SDS011;127;48.770;9.212;2023-08-12T11:24:06;6.90;;;3.57;;
286;SDS011;127;48.770;9.212;2023-08-12T11:26:38;8.53;;;3.63;;
286;SDS011;127;48.770;9.212;2023-08-12T11:29:08;8.93;;;3.93;;
286;SDS011;127;48.770;9.212;2023-08-12T11:31:38;4.23;;;3.03;;
286;SDS011;127;48.770;9.212;2023-08-12T11:34:07;11.13;;;4.00;;
286;SDS011;127;48.770;9.212;2023-08-12T11:36:36;5.60;;;3.20;;
286;SDS011;127;48.770;9.212;2023-08-12T11:39:10;4.10;;;3.20;;
286;SDS011;127;48.770;9.212;2023-08-12T11:41:42;6.50;;;3.40;;
286;SDS011;127;48.770;9.212;2023-08-12T11:44:20;11.03;;;3.60;;
286;SDS011;127;48.770;9.212;2023-08-12T11:46:51;5.33;;;3.70;;
286;SDS011;127;48.770;9.212;2023-08-12T11:49:20;6.90;;;3.10;;
286;SDS011;127;48.770;9.212;2023-08-12T11:51:52;8.20;;;4.50;;
286;SDS011;127;48.770;9.212;2023-08-12T11:54:25;4.47;;;3.73;;
286;SDS011;127;48.770;9.212;2023-08-12T11:56:57;6.40;;;3.77;;
286;SDS011;127;48.770;9.212;2023-08-12T11:59:39;8.40;;;4.23;;
286;SDS011;127;48.770;9.212;2023-08-12T12:02:10;7.53;;;3.10;;
286;SDS011;127;48.770;9.212;2023-08-12T12:04:41;6.83;;;3.70;;
286;SDS011;127;48.770;9.212;2023-08-12T12:07:18;4.80;;;3.80;;
286;SDS011;127;48.770;9.212;2023-08-12T12:09:50;10.27;;;3.97;;
286;SDS011;127;48.770;9.212;2023-08-12T12:12:24;10.23;;;5.10;;
286;SDS011;127;48.770;9.212;2023-08-12T12:14:53;7.77;;;5.57;;
286;SDS011;127;48.770;9.212;2023-08-12T12:17:23;10.27;;;5.30;;
286;SDS011;127;48.770;9.212;2023-08-12T12:19:52;7.43;;;6.10;;
286;SDS011;127;48.770;9.212;2023-08-12T12:22:28;8.23;;;4.60;;
286;SDS011;127;48.770;9.212;2023-08-12T12:25:05;9.20;;;5.70;;
286;SDS011;127;48.770;9.212;2023-08-12T12:27:43;9.07;;;5.77;;
286;SDS011;127;48.770;9.212;2023-08-12T12:30:18;14.00;;;5.80;;
286;SDS011;127;48.770;9.212;2023-08-12T12:32:47;8.30;;;5.93;;
286;SDS011;127;48.770;9.212;2023-08-12T12:35:17;8.73;;;5.80;;
286;SDS011;127;48.770;9.212;2023-08-12T12:37:46;9.23;;;5.83;;
286;SDS011;127;48.770;9.212;2023-08-12T12:40:15;7.67;;;5.87;;
286;SDS011;127;48.770;9.212;2023-08-12T12:45:43;14.90;;;6.13;;
286;SDS011;127;48.770;9.212;2023-08-12T12:48:12;11.20;;;6.70;;
286;SDS011;127;48.770;9.212;2023-08-12T12:50:43;8.13;;;5.33;;
286;SDS011;127;48.770;9.212;2023-08-12T12:53:16;13.60;;;6.40;;
286;SDS011;127;48.770;9.212;2023-08-12T12:55:46;10.97;;;6.40;;
286;SDS011;127;48.770;9.212;2023-08-12T12:58:34;9.40;;;6.37;;
286;SDS011;127;48.770;9.212;2023-08-12T13:01:12;11.50;;;7.60;;
286;SDS011;127;48.770;9.212;2023-08-12T13:03:43;10.03;;;6.60;;
286;SDS011;127;48.770;9.212;2023-08-12T13:06:12;14.37;;;7.03;;
286;SDS011;127;48.770;9.212;2023-08-12T13:08:40;14.53;;;7.53;;
286;SDS011;127;48.770;9.212;2023-08-12T13:11:15;11.97;;;7.17;;
286;SDS011;127;48.770;9.212;2023-08-12T13:13:51;13.30;;;7.67;;
286;SDS011;127;48.770;9.212;2023-08-12T13:16:20;9.57;;;5.80;;
286;SDS011;127;48.770;9.212;2023-08-12T13:18:53;11.47;;;6.80;;
286;SDS011;127;48.770;9.212;2023-08-12T13:21:23;10.60;;;6.50;;
286;SDS011;127;48.770;9.212;2023-08-12T13:23:52;13.63;;;6.70;;
286;SDS011;127;48.770;9.212;2023-08-12T13:26:21;13.53;;;7.10;;
286;SDS011;127;48.770;9.212;2023-08-12T13:28:53;14.23;;;8.03;;
286;SDS011;127;48.770;9.212;2023-08-12T13:31:21;11.00;;;7.20;;
286;SDS011;127;48.770;9.212;2023-08-12T13:33:52;13.67;;;7.47;;
286;SDS011;127;48.770;9.212;2023-08-12T13:36:20;9.53;;;6.73;;
286;SDS011;127;48.770;9.212;2023-08-12T13:38:49;12.40;;;7.43;;
286;SDS011;127;48.770;9.212;2023-08-12T13:41:18;12.03;;;7.20;;
286;SDS011;127;48.770;9.212;2023-08-12T13:43:47;7.37;;;5.60;;
286;SDS011;127;48.770;9.212;2023-08-12T13:46:20;9.77;;;6.07;;
286;SDS011;127;48.770;9.212;2023-08-12T13:48:49;9.23;;;6.63;;
286;SDS011;127;48.770;9.212;2023-08-12T13:51:17;9.57;;;6.03;;
286;SDS011;127;48.770;9.212;2023-08-12T13:53:52;10.37;;;6.33;;
286;SDS011;127;48.770;9.212;2023-08-12T13:56:21;10.50;;;5.57;;
286;SDS011;127;48.770;9.212;2023-08-12T13:58:54;9.20;;;5.37;;
286;SDS011;127;48.770;9.212;2023-08-12T14:01:26;7.60;;;5.20;;
286;SDS011;127;48.770;9.212;2023-08-12T14:06:38;8.87;;;4.83;;
286;SDS011;127;48.770;9.212;2023-08-12T14:09:09;8.73;;;4.43;;
286;SDS011;127;48.770;9.212;2023-08-12T14:11:39;10.80;;;4.87;;
286;SDS011;127;48.770;9.212;2023-08-12T14:14:08;6.57;;;5.13;;
286;SDS011;127;48.770;9.212;2023-08-12T14:16:42;7.93;;;3.80;;
286;SDS011;127;48.770;9.212;2023-08-12T14:19:10;7.73;;;4.27;;
286;SDS011;127;48.770;9.212;2023-08-12T14:21:41;10.70;;;4.87;;
286;SDS011;127;48.770;9.212;2023-08-12T14:24:10;7.17;;;3.63;;
286;SDS011;127;48.770;9.212;2023-08-12T14:26:39;7.73;;;4.10;;
286;SDS011;127;48.770;9.212;2023-08-12T14:29:10;7.97;;;3.90;;
286;SDS011;127;48.770;9.212;2023-08-12T14:31:42;8.83;;;4.50;;
286;SDS011;127;48.770;9.212;2023-08-12T14:34:12;10.40;;;4.50;;
286;SDS011;127;48.770;9.212;2023-08-12T14:36:41;6.20;;;3.67;;
286;SDS011;127;48.770;9.212;2023-08-12T14:39:14;7.63;;;4.33;;
286;SDS011;127;48.770;9.212;2023-08-12T14:41:42;5.47;;;3.53;;
286;SDS011;127;48.770;9.212;2023-08-12T14:44:11;10.17;;;4.33;;
286;SDS011;127;48.770;9.212;2023-08-12T14:46:42;8.17;;;3.50;;
286;SDS011;127;48.770;9.212;2023-08-12T14:49:13;5.27;;;3.23;;
286;SDS011;127;48.770;9.212;2023-08-12T14:51:44;7.73;;;4.23;;
286;SDS011;127;48.770;9.212;2023-08-12T14:54:13;4.90;;;3.47;;
286;SDS011;127;48.770;9.212;2023-08-12T14:56:43;5.40;;;3.30;;
286;SDS011;127;48.770;9.212;2023-08-12T14:59:12;5.33;;;3.63;;
286;SDS011;127;48.770;9.212;2023-08-12T15:01:48;6.53;;;2.93;;
286;SDS011;127;48.770;9.212;2023-08-12T15:04:19;9.27;;;3.70;;
286;SDS011;127;48.770;9.212;2023-08-12T15:06:55;6.13;;;3.33;;
286;SDS011;127;48.770;9.212;2023-08-12T15:09:28;5.70;;;3.63;;
286;SDS011;127;48.770;9.212;2023-08-12T15:11:57;4.60;;;2.50;;
286;SDS011;127;48.770;9.212;2023-08-12T15:14:26;7.70;;;3.43;;
286;SDS011;127;48.770;9.212;2023-08-12T15:16:57;7.00;;;3.13;;
286;SDS011;127;48.770;9.212;2023-08-12T15:19:28;3.23;;;2.60;;
286;SDS011;127;48.770;9.212;2023-08-12T15:22:00;5.53;;;3.47;;
286;SDS011;127;48.770;9.212;2023-08-12T15:24:30;4.27;;;2.87;;
286;SDS011;127;48.770;9.212;2023-08-12T15:27:02;6.73;;;3.03;;
286;SDS011;127;48.770;9.212;2023-08-12T15:29:33;3.77;;;2.80;;
286;SDS011;127;48.770;9.212;2023-08-12T15:32:05;7.53;;;3.23;;
286;SDS011;127;48.770;9.212;2023-08-12T15:34:37;4.57;;;3.00;;
286;SDS011;127;48.770;9.212;2023-08-12T15:37:06;10.03;;;4.00;;
286;SDS011;127;48.770;9.212;2023-08-12T15:39:34;3.50;;;3.03;;
286;SDS011;127;48.770;9.212;2023-08-12T15:42:05;9.17;;;4.73;;
286;SDS011;127;48.770;9.212;2023-08-12T15:44:38;7.73;;;3.03;;
286;SDS011;127;48.770;9.212;2023-08-12T15:47:12;4.93;;;2.80;;
286;SDS011;127;48.770;9.212;2023-08-12T15:49:41;4.50;;;2.87;;
286;SDS011;127;48.770;9.212;2023-08-12T15:52:09;7.23;;;3.50;;
286;SDS011;127;48.770;9.212;2023-08-12T15:54:38;4.40;;;2.77;;
286;SDS011;127;48.770;9.212;2023-08-12T15:57:09;3.83;;;2.77;;
286;SDS011;127;48.770;9.212;2023-08-12T15:59:38;3.17;;;2.67;;
286;SDS011;127;48.770;9.212;2023-08-12T16:02:15;4.63;;;3.10;;
286;SDS011;127;48.770;9.212;2023-08-12T16:04:45;4.63;;;3.20;;
286;SDS011;127;48.770;9.212;2023-08-12T16:07:21;4.97;;;3.20;;
286;SDS011;127;48.770;9.212;2023-08-12T16:09:52;5.60;;;3.00;;
286;SDS011;127;48.770;9.212;2023-08-12T16:12:37;10.43;;;3.40;;
286;SDS011;127;48.770;9.212;2023-08-12T16:15:10;8.90;;;3.97;;
286;SDS011;127;48.770;9.212;2023-08-12T16:17:46;11.53;;;4.17;;
286;SDS011;127;48.770;9.212;2023-08-12T16:20:17;6.70;;;3.57;;
286;SDS011;127;48.770;9.212;2023-08-12T16:29:14;8.53;;;5.33;;
286;SDS011;127;48.770;9.212;2023-08-12T16:31:59;7.40;;;4.73;;
286;SDS011;127;48.770;9.212;2023-08-12T16:34:30;10.67;;;5.30;;
286;SDS011;127;48.770;9.212;2023-08-12T16:37:01;7.77;;;5.60;;
286;SDS011;127;48.770;9.212;2023-08-12T16:39:29;14.20;;;5.83;;
286;SDS011;127;48.770;9.212;2023-08-12T16:42:00;11.73;;;5.67;;